Time;durP1;ratioP1;P1;durP2;ratioP2;P2;SDS_P1;SDS_P2;PMS_P1;PMS_P2;Temp;Humidity;BMP_temperature;BMP_pressure;BME280_temperature;BME280_humidity;BME280_pressure;Samples;Min_cycle;Max_cycle;Signal;HPM_P1;HPM_P2
2022/11/29 00:00:39;;;;;;;;;3.00;3.00;;;;;21.13;47.91;101244.97;5037983;28;45418;-73
2022/11/29 00:03:05;;;;;;;;;3.00;2.67;;;;;21.12;48.02;101252.06;5038140;28;45468;-73
2022/11/29 00:05:33;;;;;;;;;3.33;3.00;;;;;20.99;47.61;101223.44;5037792;28;46623;-73
2022/11/29 00:07:58;;;;;;;;;4.00;3.67;;;;;21.12;47.80;101244.13;5037939;28;45409;-73
2022/11/29 00:10:24;;;;;;;;;4.00;3.00;;;;;21.11;48.09;101254.88;5037194;28;45366;-73
2022/11/29 00:12:49;;;;;;;;;4.00;4.00;;;;;21.11;47.78;101241.63;5037973;28;45283;-73
2022/11/29 00:15:14;;;;;;;;;5.00;5.00;;;;;21.09;48.12;101246.28;5037504;28;45348;-73
2022/11/29 00:17:40;;;;;;;;;5.00;3.00;;;;;21.10;48.02;101256.72;5037793;28;45466;-73
2022/11/29 00:20:06;;;;;;;;;5.33;4.00;;;;;21.05;47.97;101243.94;5037838;28;45377;-73
2022/11/29 00:22:32;;;;;;;;;2.67;2.67;;;;;21.09;47.50;101254.22;5037912;28;45405;-73
2022/11/29 00:24:57;;;;;;;;;4.00;4.00;;;;;21.11;47.51;101262.81;5037341;28;50355;-73
2022/11/29 00:27:22;;;;;;;;;4.00;3.33;;;;;20.90;47.80;101225.22;5037645;28;45371;-73
2022/11/29 00:29:48;;;;;;;;;3.00;3.00;;;;;20.99;47.45;101241.09;5037455;28;45591;-73
2022/11/29 00:32:13;;;;;;;;;5.67;3.00;;;;;21.10;47.90;101253.22;5037569;28;45374;-73
2022/11/29 00:34:38;;;;;;;;;4.67;3.33;;;;;21.09;47.57;101256.84;5037400;28;46035;-73
2022/11/29 00:37:04;;;;;;;;;4.67;3.00;;;;;21.09;48.03;101260.34;5019601;28;45423;-73
2022/11/29 00:39:29;;;;;;;;;3.00;3.00;;;;;21.06;47.77;101240.31;5037509;28;45864;-73
2022/11/29 00:41:54;;;;;;;;;6.00;3.00;;;;;21.08;48.11;101244.63;5037394;28;45562;-74
2022/11/29 00:44:20;;;;;;;;;2.00;2.00;;;;;21.10;47.96;101253.22;5036923;28;46351;-73
2022/11/29 00:46:46;;;;;;;;;3.00;3.00;;;;;21.10;48.10;101251.41;5037443;28;45413;-73
2022/11/29 00:49:12;;;;;;;;;4.67;3.33;;;;;21.10;47.59;101254.06;5037712;28;45393;-73
2022/11/29 00:51:37;;;;;;;;;3.00;3.00;;;;;21.10;47.81;101251.41;5037320;28;45336;-73
2022/11/29 00:54:03;;;;;;;;;3.00;3.00;;;;;21.10;47.55;101256.72;5036872;28;45381;-73
2022/11/29 00:56:28;;;;;;;;;4.67;4.00;;;;;21.09;47.57;101252.41;5037058;28;45373;-73
2022/11/29 00:58:53;;;;;;;;;3.00;3.00;;;;;21.03;47.90;101230.06;5036758;28;45304;-73
2022/11/29 01:01:19;;;;;;;;;3.00;3.00;;;;;21.12;47.63;101251.25;5037284;28;45290;-73
2022/11/29 01:03:44;;;;;;;;;3.67;3.67;;;;;21.12;47.71;101245.94;5036973;28;47059;-73
2022/11/29 01:06:12;;;;;;;;;4.00;3.00;;;;;21.12;47.95;101257.38;5037115;28;45406;-73
2022/11/29 01:08:38;;;;;;;;;3.00;3.00;;;;;21.04;47.83;101246.78;5037107;28;45502;-73
2022/11/29 01:11:12;;;;;;;;;7.00;3.33;;;;;21.12;47.48;101261.81;5019301;28;45510;-73
2022/11/29 01:13:38;;;;;;;;;6.33;4.00;;;;;21.05;47.78;101249.25;5036503;28;45489;-73
2022/11/29 01:16:04;;;;;;;;;4.00;3.67;;;;;21.12;48.05;101261.81;5036662;28;45652;-73
2022/11/29 01:18:30;;;;;;;;;4.00;3.67;;;;;21.12;47.70;101261.81;5036980;28;45421;-73
2022/11/29 01:21:00;;;;;;;;;4.00;4.00;;;;;21.11;47.44;101261.00;5018883;28;45394;-73
2022/11/29 01:23:26;;;;;;;;;4.67;3.67;;;;;21.11;47.39;101268.09;5036695;28;47220;-73
2022/11/29 01:26:00;;;;;;;;;4.00;2.00;;;;;21.10;48.08;101272.59;5036836;28;45426;-72
2022/11/29 01:28:26;;;;;;;;;6.00;3.00;;;;;20.99;48.03;101255.16;5036636;28;45364;-73
2022/11/29 01:30:52;;;;;;;;;2.00;2.00;;;;;21.10;47.57;101274.41;5036849;28;45426;-73
2022/11/29 01:33:17;;;;;;;;;3.00;3.00;;;;;21.01;47.76;101266.44;5036335;28;46111;-73
2022/11/29 01:35:47;;;;;;;;;3.00;3.00;;;;;21.05;47.78;101267.75;5036701;28;45393;-73
2022/11/29 01:38:13;;;;;;;;;6.00;3.00;;;;;21.09;47.55;101276.22;5036661;28;45212;-73
2022/11/29 01:40:38;;;;;;;;;4.33;4.33;;;;;21.09;47.59;101278.84;5036572;28;45288;-73
2022/11/29 01:43:13;;;;;;;;;2.33;2.33;;;;;21.00;47.56;101269.22;5036010;28;47470;-73
2022/11/29 01:45:39;;;;;;;;;3.00;3.00;;;;;20.93;47.92;101264.56;5036441;28;45406;-73
2022/11/29 01:48:05;;;;;;;;;4.00;3.67;;;;;21.03;47.46;101276.84;5036379;28;45243;-73
2022/11/29 01:50:30;;;;;;;;;3.33;3.33;;;;;21.06;47.67;101282.66;5036675;28;45427;-73
2022/11/29 01:52:57;;;;;;;;;3.00;3.00;;;;;21.07;47.78;101280.84;5036298;28;45291;-73
2022/11/29 01:55:22;;;;;;;;;3.67;3.67;;;;;21.08;47.74;101294.91;5036401;28;45439;-73
2022/11/29 01:57:48;;;;;;;;;5.00;4.00;;;;;21.08;47.26;101297.56;5036059;28;45271;-72
2022/11/29 02:00:17;;;;;;;;;4.00;3.00;;;;;21.06;47.80;101295.03;5036291;28;45427;-73
2022/11/29 02:02:55;;;;;;;;;5.00;3.33;;;;;21.06;47.87;101301.16;5036095;28;45370;-73
2022/11/29 02:05:22;;;;;;;;;7.00;4.00;;;;;21.05;47.25;101302.16;5036194;28;45299;-73
2022/11/29 02:07:52;;;;;;;;;3.00;3.00;;;;;21.06;47.30;101300.34;5036126;28;45347;-73
2022/11/29 02:10:19;;;;;;;;;2.67;2.67;;;;;21.06;47.48;101311.75;5036124;28;45372;-73
2022/11/29 02:13:03;;;;;;;;;3.67;3.67;;;;;21.07;47.60;101307.31;5035379;28;46899;-73
2022/11/29 02:15:58;;;;;;;;;4.00;4.00;;;;;21.08;47.56;101308.94;5035933;28;45397;-73
2022/11/29 02:18:48;;;;;;;;;3.00;2.67;;;;;20.93;47.54;101290.19;5035963;28;45326;-73
2022/11/29 02:21:30;;;;;;;;;3.33;3.00;;;;;21.06;47.21;101314.41;5035890;28;45364;-73
2022/11/29 02:24:07;;;;;;;;;3.67;2.67;;;;;21.06;47.84;101318.84;5035702;28;47147;-73
2022/11/29 02:26:51;;;;;;;;;2.67;2.67;;;;;21.08;47.75;101327.47;5035575;28;45447;-73
2022/11/29 02:29:36;;;;;;;;;3.00;3.00;;;;;21.07;47.52;101323.16;5035875;28;45498;-73
2022/11/29 02:32:22;;;;;;;;;4.33;3.00;;;;;21.08;47.63;101321.38;5035721;28;45357;-73
2022/11/29 02:35:26;;;;;;;;;6.00;4.00;;;;;21.08;47.36;101324.00;5035444;28;47031;-73
2022/11/29 02:38:03;;;;;;;;;5.33;4.00;;;;;21.09;47.41;101328.28;4973969;28;45515;-73
2022/11/29 02:40:54;;;;;;;;;3.00;3.00;;;;;21.08;47.75;101332.75;4973970;28;45453;-73
2022/11/29 02:43:22;;;;;;;;;3.00;3.00;;;;;21.09;47.56;101338.88;4898839;28;45444;-73
2022/11/29 02:46:06;;;;;;;;;3.00;3.00;;;;;21.07;47.66;101339.03;4896761;29;46230;-73
2022/11/29 02:49:06;;;;;;;;;2.33;2.33;;;;;21.07;47.52;101339.03;4896874;29;45545;-73
2022/11/29 02:51:45;;;;;;;;;3.00;3.00;;;;;21.07;47.21;101341.69;4896968;29;45450;-73
2022/11/29 02:54:37;;;;;;;;;3.00;3.00;;;;;21.06;47.33;101340.03;4906520;28;45379;-73
2022/11/29 02:57:40;;;;;;;;;5.33;4.00;;;;;21.05;47.84;101343.69;4915772;28;46356;-73
2022/11/29 03:00:15;;;;;;;;;4.67;4.00;;;;;20.99;47.69;101341.63;4877347;29;45562;-73
2022/11/29 03:03:25;;;;;;;;;5.00;3.00;;;;;21.04;47.46;101358.72;4878010;29;45422;-73
2022/11/29 03:06:06;;;;;;;;;3.33;3.33;;;;;20.95;47.35;101351.69;4840531;29;45351;-73
2022/11/29 03:09:25;;;;;;;;;3.67;3.00;;;;;21.03;47.48;101361.50;4840333;29;45367;-73
2022/11/29 03:11:56;;;;;;;;;4.00;4.00;;;;;21.03;47.23;101367.63;4849149;29;45403;-72
2022/11/29 03:14:29;;;;;;;;;4.00;4.00;;;;;21.03;47.40;101372.91;4877769;29;45502;-73
2022/11/29 03:17:32;;;;;;;;;3.00;3.00;;;;;21.03;47.52;101367.63;4861922;29;45437;-73
2022/11/29 03:20:22;;;;;;;;;7.00;5.00;;;;;21.03;47.43;101382.66;4877426;29;45464;-73
2022/11/29 03:23:24;;;;;;;;;4.00;3.67;;;;;21.04;47.44;101381.69;4877692;29;45399;-73
2022/11/29 03:25:58;;;;;;;;;5.00;3.33;;;;;21.03;47.42;101375.56;4877770;29;45469;-73
2022/11/29 03:28:28;;;;;;;;;2.00;2.00;;;;;21.02;47.46;101383.69;4877587;29;45510;-73
2022/11/29 03:31:14;;;;;;;;;4.67;3.33;;;;;21.02;47.71;101384.50;4877371;29;47528;-73
2022/11/29 03:33:48;;;;;;;;;3.67;3.67;;;;;21.02;47.23;101378.38;4877351;29;45512;-73
2022/11/29 03:36:14;;;;;;;;;4.00;3.00;;;;;21.02;47.82;101373.09;4927809;28;45706;-73
2022/11/29 03:38:44;;;;;;;;;2.33;2.33;;;;;21.01;47.55;101382.84;4973012;28;45433;-73
2022/11/29 03:41:21;;;;;;;;;7.00;4.00;;;;;21.03;47.53;101385.31;4973370;28;47263;-74
2022/11/29 03:44:04;;;;;;;;;2.67;2.00;;;;;21.03;47.12;101390.59;4953864;28;45496;-73
2022/11/29 03:46:42;;;;;;;;;4.67;3.00;;;;;21.01;47.36;101393.44;5010797;28;45434;-73
2022/11/29 03:49:26;;;;;;;;;2.33;2.33;;;;;21.00;47.17;101404.94;5018371;28;45598;-73
2022/11/29 03:52:00;;;;;;;;;4.00;2.00;;;;;21.02;47.14;101410.13;5018382;28;45388;-73
2022/11/29 03:54:52;;;;;;;;;5.00;4.33;;;;;21.02;47.23;101405.69;5029918;28;45371;-73
2022/11/29 03:57:26;;;;;;;;;4.33;4.00;;;;;21.02;47.12;101410.13;5037865;28;45398;-72
2022/11/29 04:00:03;;;;;;;;;2.33;2.33;;;;;21.02;47.62;101418.91;5038055;28;45422;-73
2022/11/29 04:02:28;;;;;;;;;5.33;5.00;;;;;21.02;47.80;101418.91;5037961;28;46392;-73
2022/11/29 04:05:15;;;;;;;;;3.00;3.00;;;;;21.04;47.36;101416.09;5038013;28;45374;-73
2022/11/29 04:08:11;;;;;;;;;4.33;4.00;;;;;21.04;47.43;101419.56;5037745;28;45377;-73
2022/11/29 04:10:42;;;;;;;;;5.67;4.00;;;;;21.05;47.28;101423.84;5037824;28;45384;-73
2022/11/29 04:13:38;;;;;;;;;2.00;2.00;;;;;21.03;47.13;101420.53;5037919;28;46195;-73
2022/11/29 04:16:41;;;;;;;;;3.00;3.00;;;;;21.00;47.09;101414.72;5037804;28;45715;-73
2022/11/29 04:19:22;;;;;;;;;2.00;2.00;;;;;21.03;47.40;101428.47;5037874;28;45512;-73
2022/11/29 04:22:09;;;;;;;;;6.00;4.67;;;;;21.04;47.47;101427.50;5037328;28;45356;-73
2022/11/29 04:24:53;;;;;;;;;4.00;4.00;;;;;21.01;47.42;101425.16;5037460;28;47180;-73
2022/11/29 04:27:40;;;;;;;;;4.67;3.00;;;;;21.03;47.37;101430.28;5037575;28;45379;-73
2022/11/29 04:30:08;;;;;;;;;4.33;3.00;;;;;21.02;47.39;101437.41;5037659;28;45295;-73
2022/11/29 04:32:38;;;;;;;;;3.00;3.00;;;;;21.02;47.51;101440.06;5037502;28;45320;-73
2022/11/29 04:35:34;;;;;;;;;4.67;3.00;;;;;21.02;47.36;101445.34;5037391;28;47270;-73
2022/11/29 04:38:18;;;;;;;;;6.00;4.00;;;;;21.01;47.28;101438.41;5037089;28;45248;-72
2022/11/29 04:41:16;;;;;;;;;4.00;4.00;;;;;21.02;47.09;101441.88;5037670;28;45356;-73
2022/11/29 04:43:50;;;;;;;;;4.67;4.00;;;;;21.00;47.00;101439.34;5016981;28;45543;-71
2022/11/29 04:46:37;;;;;;;;;2.00;1.00;;;;;21.01;47.25;101446.34;5017329;28;47317;-74
2022/11/29 04:49:08;;;;;;;;;3.00;3.00;;;;;21.01;47.23;101448.97;5017412;28;45448;-74
2022/11/29 04:51:45;;;;;;;;;5.00;3.67;;;;;21.01;47.23;101461.34;5017002;28;45478;-72
2022/11/29 04:54:32;;;;;;;;;3.00;3.00;;;;;21.01;47.33;101466.63;5027386;28;45363;-74
2022/11/29 04:57:43;;;;;;;;;4.00;3.67;;;;;21.01;47.32;101461.34;5036679;28;47319;-74
2022/11/29 05:00:14;;;;;;;;;4.00;4.00;;;;;20.99;47.33;101465.97;5026762;28;45446;-74
2022/11/29 05:02:39;;;;;;;;;3.00;3.00;;;;;21.00;47.42;101471.09;5037088;28;45382;-74
2022/11/29 05:05:26;;;;;;;;;5.00;5.00;;;;;20.99;47.40;101466.81;5036793;28;45355;-74
2022/11/29 05:08:10;;;;;;;;;4.00;3.00;;;;;21.00;47.50;101475.56;5036964;28;46008;-74
2022/11/29 05:10:48;;;;;;;;;6.67;4.67;;;;;20.99;47.32;101480.03;5036973;28;45467;-74
2022/11/29 05:13:39;;;;;;;;;4.33;4.33;;;;;21.00;46.87;101486.16;5037009;28;45242;-73
2022/11/29 05:16:52;;;;;;;;;3.67;1.00;;;;;21.01;47.24;101488.66;5037016;28;45502;-73
2022/11/29 05:19:40;;;;;;;;;5.33;4.67;;;;;21.00;47.33;101491.44;4935800;28;46322;-73
2022/11/29 05:22:30;;;;;;;;;4.33;3.00;;;;;21.00;47.14;101496.75;4936261;28;46167;-74
2022/11/29 05:25:16;;;;;;;;;4.00;4.00;;;;;20.99;47.24;101503.84;4936460;28;45485;-73
2022/11/29 05:27:51;;;;;;;;;6.00;3.00;;;;;20.99;47.19;101509.13;4936275;28;45322;-73
2022/11/29 05:30:22;;;;;;;;;4.00;3.00;;;;;21.01;46.91;101506.31;4936117;28;46537;-73
2022/11/29 05:33:02;;;;;;;;;2.67;2.67;;;;;21.00;47.21;101510.78;4936205;28;45480;-73
2022/11/29 05:35:53;;;;;;;;;2.00;2.00;;;;;21.01;47.32;101514.25;4935933;28;45429;-73
2022/11/29 05:38:37;;;;;;;;;6.67;4.33;;;;;21.01;47.15;101520.41;4936164;28;45479;-75
2022/11/29 05:41:33;;;;;;;;;4.67;4.33;;;;;21.02;47.16;101524.72;4935965;28;47153;-73
2022/11/29 05:44:18;;;;;;;;;7.00;4.00;;;;;20.90;47.28;101504.75;4936067;28;45425;-73
2022/11/29 05:47:09;;;;;;;;;3.33;3.33;;;;;20.98;47.32;101518.03;4936115;28;45704;-74
2022/11/29 05:50:03;;;;;;;;;6.00;4.67;;;;;20.99;47.23;101513.59;4935638;28;46085;-74
2022/11/29 05:52:46;;;;;;;;;3.67;3.67;;;;;21.02;47.14;101519.44;4878567;29;45556;-74
2022/11/29 05:55:26;;;;;;;;;3.00;3.00;;;;;21.03;47.31;101525.53;4937445;28;45410;-74
2022/11/29 05:57:56;;;;;;;;;5.33;4.00;;;;;21.03;47.00;101520.25;4955190;28;45530;-73
2022/11/29 06:00:23;;;;;;;;;4.33;2.67;;;;;21.02;46.97;101523.91;4955057;28;45531;-74
2022/11/29 06:03:11;;;;;;;;;5.67;4.00;;;;;21.01;47.23;101525.69;4954558;28;46269;-74
2022/11/29 06:05:45;;;;;;;;;3.67;3.67;;;;;21.01;47.86;101530.13;4955072;28;45584;-73
2022/11/29 06:08:24;;;;;;;;;5.67;3.67;;;;;20.98;47.32;101533.06;4954113;28;45356;-73
2022/11/29 06:11:30;;;;;;;;;2.67;2.67;;;;;21.02;46.98;101539.75;4954887;28;45438;-73
2022/11/29 06:14:20;;;;;;;;;2.67;2.67;;;;;21.01;47.32;101538.94;4954861;28;46245;-74
2022/11/29 06:16:55;;;;;;;;;5.00;4.00;;;;;21.00;47.15;101544.34;4954844;28;45563;-73
2022/11/29 06:19:39;;;;;;;;;4.00;4.00;;;;;20.94;47.26;101536.06;4954541;28;45431;-74
2022/11/29 06:22:15;;;;;;;;;6.67;4.00;;;;;20.87;47.40;101529.72;4954600;28;45430;-74
2022/11/29 06:25:15;;;;;;;;;5.00;5.00;;;;;21.00;47.23;101545.16;4954599;28;46386;-73
2022/11/29 06:27:59;;;;;;;;;4.67;3.33;;;;;21.00;47.48;101552.28;4954667;28;45315;-73
2022/11/29 06:30:42;;;;;;;;;4.50;4.50;;;;;21.00;47.20;101555.75;4975945;28;45467;-73
2022/11/29 06:33:20;;;;;;;;;5.00;4.67;;;;;20.99;47.00;101559.41;4975991;28;45383;-74
2022/11/29 06:35:50;;;;;;;;;4.00;4.00;;;;;20.98;47.09;101556.88;4976128;28;46980;-74
2022/11/29 06:38:21;;;;;;;;;4.00;3.00;;;;;20.97;46.95;101564.03;4976205;28;45331;-73
2022/11/29 06:40:47;;;;;;;;;2.33;2.00;;;;;21.00;47.22;101573.47;4976292;28;45403;-73
2022/11/29 06:43:13;;;;;;;;;7.00;5.75;;;;;21.00;46.92;101576.09;4992652;28;45805;-74
2022/11/29 06:45:49;;;;;;;;;3.00;3.00;;;;;20.93;47.25;101567.94;4995474;28;45456;-75
2022/11/29 06:48:25;;;;;;;;;5.67;5.00;;;;;20.89;47.10;101559.50;4995420;28;45454;-75
2022/11/29 06:51:30;;;;;;;;;5.00;4.33;;;;;20.98;47.34;101584.19;4995790;28;45389;-73
2022/11/29 06:54:07;;;;;;;;;6.67;3.33;;;;;21.01;47.28;101585.69;4934726;28;45459;-73
2022/11/29 06:57:15;;;;;;;;;3.67;3.67;;;;;21.01;47.37;101593.63;4934776;28;46281;-72
2022/11/29 06:59:46;;;;;;;;;4.00;3.00;;;;;21.02;47.44;101595.31;4934813;28;45398;-74
2022/11/29 07:02:43;;;;;;;;;3.00;3.00;;;;;21.02;47.24;101600.63;4934701;28;45476;-73
2022/11/29 07:05:14;;;;;;;;;6.00;4.33;;;;;21.02;47.52;101596.16;4859124;29;45707;-73
2022/11/29 07:07:40;;;;;;;;;7.33;4.67;;;;;21.02;47.32;101604.09;4858801;29;46678;-74
2022/11/29 07:10:12;;;;;;;;;3.33;2.67;;;;;21.00;47.30;101599.91;4858874;29;45425;-73
2022/11/29 07:12:38;;;;;;;;;5.00;3.67;;;;;21.03;47.35;101610.19;4859013;29;45444;-73
2022/11/29 07:15:04;;;;;;;;;4.00;3.00;;;;;21.02;47.24;101616.50;4859165;29;45461;-73
2022/11/29 07:17:38;;;;;;;;;6.33;4.33;;;;;21.04;47.21;101614.50;4858499;29;46304;-73
2022/11/29 07:20:29;;;;;;;;;3.00;3.00;;;;;21.05;47.66;101614.34;4861119;29;45466;-73
2022/11/29 07:23:13;;;;;;;;;5.33;4.00;;;;;21.04;47.58;101619.81;4862218;29;45524;-73
2022/11/29 07:25:38;;;;;;;;;6.00;4.00;;;;;21.04;47.53;101625.09;4862185;29;45518;-73
2022/11/29 07:28:31;;;;;;;;;4.50;4.00;;;;;21.05;47.24;101632.88;4861997;29;45514;-73
2022/11/29 07:31:16;;;;;;;;;6.00;3.00;;;;;21.05;47.36;101634.72;4918521;28;45418;-74
2022/11/29 07:34:12;;;;;;;;;3.33;3.00;;;;;21.04;47.19;101643.63;4918762;28;45294;-74
2022/11/29 07:36:52;;;;;;;;;5.00;4.67;;;;;21.04;47.19;101647.09;4918732;28;45386;-73
2022/11/29 07:39:56;;;;;;;;;4.00;3.00;;;;;20.93;47.39;101629.63;4918715;28;45433;-73
2022/11/29 07:42:46;;;;;;;;;6.00;3.00;;;;;21.03;47.43;101641.94;4978717;28;45491;-73
2022/11/29 07:45:23;;;;;;;;;3.67;3.67;;;;;20.94;47.19;101641.03;5018396;28;45811;-74
2022/11/29 07:47:49;;;;;;;;;5.33;5.33;;;;;21.02;47.08;101653.53;5018476;28;45302;-73
2022/11/29 07:50:15;;;;;;;;;7.00;4.33;;;;;21.01;47.13;101665.91;5016977;28;47051;-74
2022/11/29 07:52:41;;;;;;;;;3.00;3.00;;;;;21.01;47.23;101671.22;5018164;28;45295;-73
2022/11/29 07:55:12;;;;;;;;;3.00;3.00;;;;;21.01;47.21;101667.69;5018223;28;45585;-73
2022/11/29 07:57:37;;;;;;;;;4.33;3.00;;;;;20.99;47.33;101667.88;5018295;28;45431;-73
2022/11/29 08:00:04;;;;;;;;;4.33;3.67;;;;;21.00;47.21;101672.16;5032336;28;49383;-74
2022/11/29 08:02:30;;;;;;;;;3.00;3.00;;;;;21.00;47.37;101674.81;5038095;28;45336;-74
2022/11/29 08:04:56;;;;;;;;;5.00;3.33;;;;;21.02;47.29;101674.69;5038076;28;45407;-74
2022/11/29 08:07:22;;;;;;;;;3.00;3.00;;;;;20.96;47.08;101665.53;5037905;28;45431;-74
2022/11/29 08:09:49;;;;;;;;;3.67;3.67;;;;;21.02;47.43;101680.00;5037725;28;46422;-73
2022/11/29 08:12:15;;;;;;;;;5.67;3.00;;;;;20.90;47.50;101656.38;5037828;28;45445;-74
2022/11/29 08:14:40;;;;;;;;;5.67;4.67;;;;;20.90;47.22;101669.59;5037594;28;45402;-73
2022/11/29 08:17:05;;;;;;;;;6.00;4.00;;;;;20.99;47.45;101677.59;5038014;28;45452;-73
2022/11/29 08:19:31;;;;;;;;;2.33;2.33;;;;;20.99;47.22;101680.25;5037715;28;47319;-73
2022/11/29 08:21:56;;;;;;;;;7.33;4.67;;;;;20.99;47.57;101672.31;5037776;28;45466;-73
2022/11/29 08:24:22;;;;;;;;;3.33;3.33;;;;;20.85;47.35;101661.28;5037880;28;45319;-73
2022/11/29 08:26:47;;;;;;;;;4.67;3.67;;;;;20.99;47.56;101691.69;5037766;28;45308;-74
2022/11/29 08:29:13;;;;;;;;;5.00;4.00;;;;;21.00;46.82;101685.38;5037409;28;46040;-73
2022/11/29 08:31:38;;;;;;;;;3.67;3.00;;;;;21.00;46.78;101689.88;5036862;28;45454;-73
2022/11/29 08:34:05;;;;;;;;;6.67;4.00;;;;;21.00;47.21;101695.16;5037686;28;45763;-74
2022/11/29 08:36:32;;;;;;;;;4.00;3.67;;;;;21.00;47.19;101705.75;5037795;28;45370;-73
2022/11/29 08:38:57;;;;;;;;;5.33;5.33;;;;;21.00;47.29;101711.03;5037195;28;47194;-73
2022/11/29 08:41:22;;;;;;;;;5.33;4.00;;;;;21.00;47.24;101718.97;5037200;28;45364;-73
2022/11/29 08:43:48;;;;;;;;;6.00;5.00;;;;;20.98;47.33;101715.63;5037348;28;45604;-73
2022/11/29 08:46:13;;;;;;;;;3.00;3.00;;;;;20.88;47.08;101699.84;5037491;28;46253;-73
2022/11/29 08:48:39;;;;;;;;;5.33;4.33;;;;;21.00;46.86;101725.06;5037398;28;45391;-73
2022/11/29 08:51:05;;;;;;;;;4.67;4.67;;;;;21.00;47.18;101725.06;5019276;28;45368;-74
2022/11/29 08:53:45;;;;;;;;;5.33;4.00;;;;;21.00;47.07;101734.84;5037196;28;45845;-74
2022/11/29 08:56:12;;;;;;;;;3.00;3.00;;;;;21.01;46.90;101733.84;5037290;28;45447;-73
2022/11/29 08:58:37;;;;;;;;;5.00;4.00;;;;;21.04;47.23;101733.56;5036453;28;46330;-74
2022/11/29 09:01:04;;;;;;;;;3.67;3.67;;;;;21.02;47.28;101741.69;5037186;28;45453;-73
2022/11/29 09:06:17;;;;;;;;;3.00;3.00;;;;;20.96;47.20;101734.31;5037148;28;45379;-74
2022/11/29 09:08:42;;;;;;;;;5.00;5.00;;;;;21.03;47.00;101745.97;5036835;28;46933;-73
2022/11/29 09:11:18;;;;;;;;;6.33;3.67;;;;;21.02;47.25;101746.97;5037000;28;45349;-74
2022/11/29 09:13:46;;;;;;;;;4.00;4.00;;;;;21.02;46.99;101738.19;5037160;28;45342;-74
2022/11/29 09:16:16;;;;;;;;;4.67;3.67;;;;;21.02;46.93;101743.47;5037018;28;45434;-74
2022/11/29 09:18:42;;;;;;;;;7.67;5.00;;;;;21.02;46.97;101754.06;5036717;28;47156;-73
2022/11/29 09:21:10;;;;;;;;;3.00;3.00;;;;;21.01;46.67;101750.59;5036739;28;45351;-74
2022/11/29 09:23:36;;;;;;;;;2.67;2.67;;;;;21.00;46.93;101762.09;5036859;28;45468;-74
2022/11/29 09:26:02;;;;;;;;;2.67;2.67;;;;;21.00;46.89;101756.81;5036489;28;45360;-73
2022/11/29 09:28:28;;;;;;;;;4.00;4.00;;;;;20.99;46.80;101762.28;5036743;28;46248;-74
2022/11/29 09:30:54;;;;;;;;;5.67;4.33;;;;;20.98;46.84;101758.78;5036542;28;45264;-74
2022/11/29 09:33:19;;;;;;;;;5.67;4.00;;;;;21.01;46.96;101769.09;5036752;28;45591;-74
2022/11/29 09:35:44;;;;;;;;;5.33;3.00;;;;;21.02;47.07;101772.59;5036703;28;45599;-74
2022/11/29 09:38:11;;;;;;;;;4.00;4.00;;;;;21.00;46.92;101777.19;5036546;28;46135;-74
2022/11/29 09:40:45;;;;;;;;;5.00;4.00;;;;;20.99;46.95;101781.63;5036272;28;45417;-73
2022/11/29 09:43:36;;;;;;;;;5.33;5.33;;;;;21.01;46.73;101787.63;5035414;28;45560;-73
2022/11/29 09:46:14;;;;;;;;;4.00;4.00;;;;;21.01;46.64;101792.91;5036634;28;45358;-74
2022/11/29 09:48:52;;;;;;;;;3.33;3.33;;;;;21.01;46.82;101795.56;5036149;28;47089;-74
2022/11/29 09:51:39;;;;;;;;;4.00;4.00;;;;;21.00;47.00;101799.16;5036463;28;45407;-74
2022/11/29 09:54:19;;;;;;;;;4.67;3.67;;;;;21.00;46.77;101807.09;5036257;28;45324;-74
2022/11/29 09:56:49;;;;;;;;;4.00;4.00;;;;;20.99;47.22;101809.88;5035907;28;45397;-73
2022/11/29 09:59:34;;;;;;;;;5.00;4.00;;;;;21.00;47.02;101808.94;5035936;28;46261;-74
2022/11/29 10:02:03;;;;;;;;;6.00;4.00;;;;;21.00;46.90;101804.44;5036157;28;45338;-73
2022/11/29 10:04:35;;;;;;;;;4.00;3.00;;;;;20.98;46.55;101800.28;5036446;28;45483;-74
2022/11/29 10:07:13;;;;;;;;;4.33;3.67;;;;;20.99;47.09;101805.44;5036274;28;45219;-74
2022/11/29 10:10:20;;;;;;;;;4.00;4.00;;;;;20.99;46.88;101813.38;5035606;28;46135;-73
2022/11/29 10:12:51;;;;;;;;;3.67;3.67;;;;;21.00;46.98;101819.50;4954699;28;45516;-74
2022/11/29 10:15:27;;;;;;;;;5.00;5.00;;;;;20.99;46.53;101818.66;4954957;28;45421;-73
2022/11/29 10:17:55;;;;;;;;;9.00;5.33;;;;;20.99;46.82;101812.53;4954966;28;45495;-73
2022/11/29 10:20:24;;;;;;;;;4.00;4.00;;;;;20.98;46.86;101810.88;4954146;28;46797;-74
2022/11/29 10:22:55;;;;;;;;;4.00;4.00;;;;;20.98;46.77;101809.06;4935404;28;45442;-72
2022/11/29 10:25:35;;;;;;;;;4.00;3.00;;;;;21.00;46.77;101809.72;4935077;28;45396;-73
2022/11/29 10:28:02;;;;;;;;;4.00;3.00;;;;;21.01;46.66;101807.94;4935473;28;45542;-72
2022/11/29 10:30:30;;;;;;;;;5.00;3.00;;;;;21.02;46.73;101807.81;4935245;28;45418;-73
2022/11/29 10:32:59;;;;;;;;;7.00;4.00;;;;;20.96;46.95;101800.44;4935360;28;45439;-73
2022/11/29 10:35:25;;;;;;;;;5.00;4.00;;;;;21.03;46.97;101811.28;4935441;28;45421;-74
2022/11/29 10:37:54;;;;;;;;;5.33;5.00;;;;;20.94;46.66;101794.47;4935481;28;45275;-73
2022/11/29 10:40:34;;;;;;;;;5.67;4.33;;;;;21.03;46.75;101809.47;4935252;28;45453;-73
2022/11/29 10:43:01;;;;;;;;;4.67;4.67;;;;;21.03;46.92;101800.69;4933908;28;45434;-72
2022/11/29 10:45:38;;;;;;;;;4.67;3.33;;;;;21.04;46.64;101800.56;4954715;28;45387;-72
2022/11/29 10:48:08;;;;;;;;;4.00;4.00;;;;;20.99;46.63;101789.56;4970015;28;45559;-74
2022/11/29 10:50:35;;;;;;;;;7.67;4.00;;;;;21.04;46.91;101795.28;4995784;28;46146;-73
2022/11/29 10:53:09;;;;;;;;;5.33;5.33;;;;;21.04;47.06;101792.63;4995854;28;45366;-74
2022/11/29 10:55:48;;;;;;;;;3.67;3.67;;;;;21.04;46.59;101795.28;5015232;28;45291;-74
2022/11/29 10:58:15;;;;;;;;;6.67;5.67;;;;;21.05;46.62;101788.97;5015511;28;45543;-74
2022/11/29 11:00:49;;;;;;;;;4.00;4.00;;;;;21.05;47.11;101791.63;5015205;28;47280;-73
2022/11/29 11:03:44;;;;;;;;;2.67;2.67;;;;;21.05;46.77;101796.91;5015268;28;45340;-74
2022/11/29 11:06:09;;;;;;;;;6.33;4.00;;;;;21.05;46.54;101796.91;5004631;28;45494;-73
2022/11/29 11:08:37;;;;;;;;;3.00;3.00;;;;;21.05;46.97;101796.09;5015161;28;45454;-74
2022/11/29 11:11:05;;;;;;;;;5.00;3.33;;;;;21.07;46.78;101791.50;5015336;28;47184;-73
2022/11/29 11:13:31;;;;;;;;;4.75;4.75;;;;;21.06;46.49;101795.94;5015263;28;45355;-74
2022/11/29 11:16:15;;;;;;;;;7.50;4.00;;;;;20.98;46.68;101779.94;5015340;28;45395;-74
2022/11/29 11:18:42;;;;;;;;;5.00;4.00;;;;;21.03;46.80;101795.41;5015366;28;45426;-74
2022/11/29 11:21:14;;;;;;;;;5.00;4.00;;;;;21.06;46.93;101798.59;5015191;28;45916;-74
2022/11/29 11:23:58;;;;;;;;;5.67;4.00;;;;;21.06;46.61;101801.22;5014692;28;45384;-74
2022/11/29 11:26:25;;;;;;;;;6.00;5.00;;;;;21.04;46.26;101799.72;5015286;28;45454;-73
2022/11/29 11:28:59;;;;;;;;;4.00;3.00;;;;;21.00;46.75;101804.44;5015103;28;45371;-73
2022/11/29 11:31:28;;;;;;;;;6.00;4.00;;;;;21.05;46.56;101817.28;5015052;28;46262;-73
2022/11/29 11:33:53;;;;;;;;;8.33;5.00;;;;;21.03;46.95;101825.34;4997057;28;45485;-73
2022/11/29 11:36:18;;;;;;;;;6.33;6.33;;;;;21.04;46.60;101827.03;5014767;28;45308;-73
2022/11/29 11:38:56;;;;;;;;;4.33;4.33;;;;;21.04;46.80;101824.38;5015026;28;45450;-73
2022/11/29 11:42:35;;;;;;;;;6.00;4.33;;;;;21.04;46.66;101832.31;5014905;28;45534;-73
2022/11/29 11:44:20;;;;;;;;;4.00;4.00;;;;;21.03;46.52;101825.34;5014621;28;45220;-73
2022/11/29 11:46:49;;;;;;;;;4.33;4.33;;;;;21.04;46.40;101839.41;5014810;28;45432;-74
2022/11/29 11:49:53;;;;;;;;;2.33;2.33;;;;;21.04;46.83;101842.06;5014824;28;45423;-74
2022/11/29 11:52:29;;;;;;;;;3.67;3.67;;;;;21.04;46.55;101839.41;5014507;28;46307;-74
2022/11/29 11:55:01;;;;;;;;;3.33;3.33;;;;;21.03;46.68;101838.56;5014517;28;45315;-74
2022/11/29 11:57:27;;;;;;;;;4.00;4.00;;;;;21.02;46.33;101844.03;5014812;28;45307;-74
2022/11/29 11:59:55;;;;;;;;;6.67;4.00;;;;;21.02;46.43;101834.28;5014624;28;45361;-74
2022/11/29 12:02:39;;;;;;;;;4.67;3.67;;;;;21.03;46.67;101835.94;5014425;28;45419;-74
2022/11/29 12:05:12;;;;;;;;;2.33;2.33;;;;;21.01;46.61;101831.72;5014725;28;45414;-73